Time;durP1;ratioP1;P1;durP2;ratioP2;P2;SDS_P1;SDS_P2;PMS_P1;PMS_P2;Temp;Humidity;BMP_temperature;BMP_pressure;BME280_temperature;BME280_humidity;BME280_pressure;Samples;Min_cycle;Max_cycle;Signal;HPM_P1;HPM_P2
2021/01/15 00:01:16;;;;;;;19.65;10.50;;;-0.20;99.90;;;;;;5091887;28;20059;-65
2021/01/15 00:03:43;;;;;;;18.02;10.10;;;-0.20;99.90;;;;;;5092460;28;20056;-65
2021/01/15 00:06:17;;;;;;;16.63;9.40;;;-0.30;99.90;;;;;;5091236;28;20048;-65
2021/01/15 00:08:43;;;;;;;17.08;10.13;;;-0.30;99.90;;;;;;5072861;28;20044;-65
2021/01/15 00:11:23;;;;;;;16.02;9.35;;;-0.40;99.90;;;;;;5091552;28;20467;-66
2021/01/15 00:13:50;;;;;;;16.40;9.52;;;-0.50;99.90;;;;;;5091710;28;20040;-65
2021/01/15 00:16:28;;;;;;;16.38;10.07;;;-0.50;99.90;;;;;;5091014;28;20052;-64
2021/01/15 00:18:57;;;;;;;18.65;10.00;;;-0.60;99.90;;;;;;5081582;28;20048;-67
2021/01/15 00:21:26;;;;;;;16.58;9.45;;;-0.60;99.90;;;;;;5091129;28;20066;-65
2021/01/15 00:23:55;;;;;;;16.02;9.90;;;-0.70;99.90;;;;;;5091478;28;20048;-64
2021/01/15 00:26:24;;;;;;;14.95;9.52;;;-0.70;99.90;;;;;;5091577;28;20051;-63
2021/01/15 00:28:51;;;;;;;16.35;9.48;;;-0.70;99.90;;;;;;5091567;28;20488;-63
2021/01/15 00:31:18;;;;;;;16.27;8.82;;;-0.60;99.90;;;;;;5090570;28;20051;-63
2021/01/15 00:33:45;;;;;;;11.43;8.13;;;-0.70;99.90;;;;;;5091558;28;20044;-64
2021/01/15 00:36:12;;;;;;;16.98;8.98;;;-0.70;99.90;;;;;;5090293;28;20048;-65
2021/01/15 00:38:38;;;;;;;16.13;8.85;;;-0.70;99.90;;;;;;5091174;28;20044;-65
2021/01/15 00:41:08;;;;;;;15.70;9.00;;;-0.70;99.90;;;;;;5075172;28;20669;-65
2021/01/15 00:43:36;;;;;;;17.17;8.82;;;-0.70;99.90;;;;;;5063685;28;20056;-65
2021/01/15 00:46:07;;;;;;;17.35;10.25;;;-0.70;99.90;;;;;;5090192;28;20438;-64
2021/01/15 00:48:35;;;;;;;15.13;9.40;;;-0.70;99.90;;;;;;5073516;28;20110;-65
2021/01/15 00:51:09;;;;;;;13.77;9.32;;;-0.70;99.90;;;;;;5090555;28;20047;-64
2021/01/15 00:53:36;;;;;;;16.13;9.25;;;-0.70;99.90;;;;;;5091608;28;20471;-64
2021/01/15 00:56:03;;;;;;;15.75;9.00;;;-0.60;99.90;;;;;;5090674;28;20050;-64
2021/01/15 00:58:30;;;;;;;16.45;8.85;;;-0.60;99.90;;;;;;5091643;28;20555;-65
2021/01/15 01:00:57;;;;;;;14.20;9.00;;;-0.60;99.90;;;;;;5090442;28;20047;-64
2021/01/15 01:03:23;;;;;;;17.80;9.15;;;-0.70;99.90;;;;;;5092473;28;20513;-67
2021/01/15 01:05:49;;;;;;;14.98;8.93;;;-0.70;99.90;;;;;;5091072;28;20063;-67
2021/01/15 01:08:16;;;;;;;16.52;8.90;;;-0.70;99.90;;;;;;5090747;28;20044;-66
2021/01/15 01:10:42;;;;;;;15.18;8.90;;;-0.80;99.90;;;;;;5091134;28;20067;-66
2021/01/15 01:13:09;;;;;;;19.45;9.50;;;-0.90;99.90;;;;;;5090407;28;20048;-68
2021/01/15 01:15:35;;;;;;;18.67;10.13;;;-0.90;99.90;;;;;;5091429;28;20055;-66
2021/01/15 01:18:02;;;;;;;15.05;8.98;;;-0.90;99.90;;;;;;5090596;28;20131;-66
2021/01/15 01:20:28;;;;;;;14.02;8.70;;;-1.00;99.90;;;;;;5090957;28;20486;-66
2021/01/15 01:22:54;;;;;;;16.88;8.73;;;-1.00;99.90;;;;;;5106164;28;20048;-67
2021/01/15 01:25:21;;;;;;;15.30;9.63;;;-1.10;99.90;;;;;;5090523;28;20135;-66
2021/01/15 01:27:47;;;;;;;16.25;9.23;;;-1.20;99.90;;;;;;5090830;28;20048;-66
2021/01/15 01:30:14;;;;;;;18.98;10.63;;;-1.30;99.90;;;;;;5089880;28;20048;-66
2021/01/15 01:32:41;;;;;;;15.63;9.18;;;-1.30;99.90;;;;;;5089501;28;20055;-67
2021/01/15 01:35:09;;;;;;;15.82;9.57;;;-1.40;99.90;;;;;;5090237;28;20526;-67
2021/01/15 01:37:36;;;;;;;20.55;10.55;;;-1.50;99.90;;;;;;5090492;28;20048;-67
2021/01/15 01:40:03;;;;;;;17.25;10.38;;;-1.60;99.90;;;;;;5080094;28;20051;-67
2021/01/15 01:42:30;;;;;;;20.25;11.38;;;-1.60;99.90;;;;;;5090450;28;20484;-67
2021/01/15 01:44:56;;;;;;;19.55;11.20;;;-1.70;99.90;;;;;;5072912;28;20056;-65
2021/01/15 01:47:23;;;;;;;23.92;11.10;;;-1.80;99.90;;;;;;5090098;28;20550;-67
2021/01/15 01:49:50;;;;;;;19.80;10.90;;;-1.90;99.90;;;;;;5090787;28;20036;-66
2021/01/15 01:52:17;;;;;;;19.20;10.93;;;-1.90;99.90;;;;;;5090084;28;20090;-66
2021/01/15 01:54:46;;;;;;;20.25;11.60;;;-2.00;99.90;;;;;;5090636;28;20040;-66
2021/01/15 01:57:12;;;;;;;22.45;11.73;;;-2.00;99.90;;;;;;5089534;28;20048;-66
2021/01/15 01:59:39;;;;;;;22.73;12.38;;;-2.00;99.90;;;;;;5088749;28;20044;-66
2021/01/15 02:02:05;;;;;;;24.20;12.85;;;-2.10;99.90;;;;;;5073612;28;20054;-67
2021/01/15 02:04:34;;;;;;;20.45;11.98;;;-2.10;99.90;;;;;;5093508;28;20513;-67
2021/01/15 02:07:00;;;;;;;23.30;12.57;;;-2.10;99.90;;;;;;5076157;28;20063;-67
2021/01/15 02:09:49;;;;;;;24.50;11.90;;;-2.20;99.90;;;;;;5093618;28;20063;-66
2021/01/15 02:12:43;;;;;;;19.50;11.20;;;-2.20;99.90;;;;;;5093586;28;20391;-66
2021/01/15 02:15:20;;;;;;;19.73;11.30;;;-2.30;99.90;;;;;;5094420;28;20375;-65
2021/01/15 02:18:07;;;;;;;25.33;12.00;;;-2.30;99.90;;;;;;5088884;28;20041;-66
2021/01/15 02:20:57;;;;;;;20.30;12.48;;;-2.30;99.90;;;;;;5075807;28;20059;-66
2021/01/15 02:23:44;;;;;;;22.05;11.90;;;-2.30;99.90;;;;;;5090946;28;20040;-67
2021/01/15 02:26:26;;;;;;;23.02;12.30;;;-2.40;99.90;;;;;;5093450;28;20136;-66
2021/01/15 02:29:07;;;;;;;23.27;12.07;;;-2.40;99.90;;;;;;5094393;28;20043;-66
2021/01/15 02:31:45;;;;;;;21.30;11.50;;;-2.40;99.90;;;;;;5092407;28;20282;-67
2021/01/15 02:34:35;;;;;;;22.33;12.27;;;-2.50;99.90;;;;;;5093590;28;20052;-66
2021/01/15 02:37:16;;;;;;;21.75;11.82;;;-2.50;99.90;;;;;;5072335;28;20044;-66
2021/01/15 02:40:06;;;;;;;26.00;12.90;;;-2.50;99.90;;;;;;5093812;28;20088;-67
2021/01/15 02:42:36;;;;;;;25.63;12.63;;;-2.60;99.90;;;;;;5091072;28;20047;-66
2021/01/15 02:45:12;;;;;;;22.30;12.18;;;-2.70;99.90;;;;;;5068391;28;20045;-66
2021/01/15 02:47:48;;;;;;;22.23;11.18;;;-2.70;99.90;;;;;;5093243;28;20189;-66
2021/01/15 02:50:17;;;;;;;23.52;11.73;;;-2.70;99.90;;;;;;5092201;28;20048;-66
2021/01/15 02:52:44;;;;;;;23.00;12.00;;;-2.70;99.90;;;;;;5074193;28;20048;-67
2021/01/15 02:55:12;;;;;;;20.23;11.68;;;-2.70;99.90;;;;;;5093347;28;20040;-67
2021/01/15 02:57:39;;;;;;;22.42;11.48;;;-2.80;99.90;;;;;;5092330;28;20055;-67
2021/01/15 03:00:10;;;;;;;20.08;11.05;;;-2.80;99.90;;;;;;5092840;28;20417;-66
2021/01/15 03:02:42;;;;;;;24.40;11.23;;;-2.90;99.90;;;;;;5091778;28;20048;-66
2021/01/15 03:05:22;;;;;;;20.92;11.32;;;-2.90;99.90;;;;;;5092411;28;20136;-66
2021/01/15 03:07:50;;;;;;;27.00;12.82;;;-2.90;99.90;;;;;;5074710;28;20044;-66
2021/01/15 03:10:23;;;;;;;20.45;11.55;;;-2.90;99.90;;;;;;5092487;28;20056;-66
2021/01/15 03:12:52;;;;;;;23.42;11.88;;;-2.80;99.90;;;;;;5073978;28;20076;-66
2021/01/15 03:15:20;;;;;;;22.58;12.07;;;-2.90;99.90;;;;;;5084465;28;20417;-66
2021/01/15 03:17:49;;;;;;;22.27;11.68;;;-2.90;99.90;;;;;;5082311;28;20048;-67
2021/01/15 03:20:17;;;;;;;21.80;10.52;;;-2.90;99.90;;;;;;5088057;28;20446;-67
2021/01/15 03:22:47;;;;;;;22.90;12.77;;;-2.90;99.90;;;;;;5074550;28;20447;-67
2021/01/15 03:25:15;;;;;;;19.70;10.73;;;-3.00;99.90;;;;;;5092451;28;20040;-67
2021/01/15 03:27:50;;;;;;;23.70;11.25;;;-3.00;99.90;;;;;;5080416;28;20045;-67
2021/01/15 03:30:19;;;;;;;21.30;11.32;;;-3.00;99.90;;;;;;5091075;28;20067;-67
2021/01/15 03:32:47;;;;;;;21.80;11.45;;;-3.00;99.90;;;;;;5090533;28;20363;-66
2021/01/15 03:35:24;;;;;;;20.52;11.10;;;-3.00;99.90;;;;;;5092415;28;20136;-66
2021/01/15 03:37:59;;;;;;;21.40;10.52;;;-3.00;99.90;;;;;;5092223;28;20550;-66
2021/01/15 03:40:47;;;;;;;18.92;10.90;;;-3.10;99.90;;;;;;5092646;28;20296;-66
2021/01/15 03:43:22;;;;;;;21.55;10.48;;;-3.10;99.90;;;;;;5092553;28;20044;-65
2021/01/15 03:45:50;;;;;;;23.63;10.88;;;-3.10;99.90;;;;;;5081566;28;20128;-66
2021/01/15 03:48:18;;;;;;;18.67;10.30;;;-3.10;99.90;;;;;;5090939;28;20050;-65
2021/01/15 03:50:44;;;;;;;20.17;10.02;;;-3.10;99.90;;;;;;5091533;28;20075;-67
2021/01/15 03:53:15;;;;;;;18.92;9.77;;;-3.10;99.90;;;;;;5092216;28;20044;-67
2021/01/15 03:55:41;;;;;;;18.75;9.90;;;-3.20;99.90;;;;;;5090325;28;20044;-66
2021/01/15 03:58:08;;;;;;;20.35;10.20;;;-3.20;99.90;;;;;;5079309;28;20058;-66
2021/01/15 04:00:35;;;;;;;21.33;11.32;;;-3.20;99.90;;;;;;5091628;28;20649;-66
2021/01/15 04:03:05;;;;;;;20.00;9.68;;;-3.20;99.90;;;;;;5078654;28;20106;-66
2021/01/15 04:05:33;;;;;;;19.42;9.90;;;-3.20;99.90;;;;;;5091991;28;20418;-66
2021/01/15 04:07:59;;;;;;;21.00;10.15;;;-3.20;99.90;;;;;;5090799;28;20047;-66
2021/01/15 04:10:26;;;;;;;17.75;9.73;;;-3.20;99.90;;;;;;5092040;28;20504;-66
2021/01/15 04:12:53;;;;;;;15.15;8.95;;;-3.20;99.90;;;;;;5091805;28;20055;-66
2021/01/15 04:15:19;;;;;;;19.80;9.93;;;-3.30;99.90;;;;;;5091361;28;20404;-66
2021/01/15 04:17:46;;;;;;;18.00;9.90;;;-3.20;99.90;;;;;;5092073;28;20158;-66
2021/01/15 04:20:14;;;;;;;24.02;10.85;;;-3.30;99.90;;;;;;5087385;28;20394;-66
2021/01/15 04:22:46;;;;;;;20.08;9.82;;;-3.30;99.90;;;;;;5091258;28;20413;-66
2021/01/15 04:25:13;;;;;;;17.50;9.13;;;-3.30;99.90;;;;;;5090912;28;20095;-66
2021/01/15 04:27:40;;;;;;;19.33;9.07;;;-3.40;99.90;;;;;;5085839;28;20040;-67
2021/01/15 04:30:09;;;;;;;19.30;9.77;;;-3.40;99.90;;;;;;5091279;28;20052;-66
2021/01/15 04:32:42;;;;;;;17.60;8.93;;;-3.40;99.90;;;;;;5089600;28;20048;-66
2021/01/15 04:35:09;;;;;;;17.58;8.80;;;-3.40;99.90;;;;;;5091481;28;20526;-67
2021/01/15 04:37:35;;;;;;;15.90;8.93;;;-3.40;99.90;;;;;;5090930;28;20048;-67
2021/01/15 04:40:03;;;;;;;18.75;9.85;;;-3.40;99.90;;;;;;5084563;28;20055;-66
2021/01/15 04:42:32;;;;;;;17.67;9.50;;;-3.40;99.90;;;;;;5074154;28;20039;-66
2021/01/15 04:44:59;;;;;;;16.58;9.55;;;-3.40;99.90;;;;;;5089975;28;20052;-66
2021/01/15 04:47:27;;;;;;;20.73;10.40;;;-3.40;99.90;;;;;;5091013;28;20465;-66
2021/01/15 04:49:54;;;;;;;18.23;9.68;;;-3.40;99.90;;;;;;5089973;28;20040;-66
2021/01/15 04:52:21;;;;;;;17.27;9.93;;;-3.40;99.90;;;;;;5091075;28;20044;-66
2021/01/15 04:54:56;;;;;;;18.95;9.52;;;-3.30;99.90;;;;;;5090623;28;20520;-66
2021/01/15 04:57:26;;;;;;;19.20;10.30;;;-3.30;99.90;;;;;;5091248;28;20120;-66
2021/01/15 04:59:55;;;;;;;19.27;9.63;;;-3.30;99.90;;;;;;5090867;28;20082;-66
2021/01/15 05:02:22;;;;;;;20.02;10.20;;;-3.20;99.90;;;;;;5071585;28;20054;-66
2021/01/15 05:04:51;;;;;;;21.00;10.60;;;-3.20;99.90;;;;;;5090188;28;20075;-66
2021/01/15 05:07:23;;;;;;;21.35;10.45;;;-3.20;99.90;;;;;;5090529;28;20051;-66
2021/01/15 05:09:55;;;;;;;20.05;10.93;;;-3.20;99.90;;;;;;5090993;28;20055;-66
2021/01/15 05:12:29;;;;;;;20.92;11.45;;;-3.20;99.90;;;;;;5089962;28;20132;-67
2021/01/15 05:14:56;;;;;;;34.00;13.38;;;-3.10;99.90;;;;;;5091075;28;20583;-66
2021/01/15 05:17:26;;;;;;;37.25;14.85;;;-3.10;99.90;;;;;;5090866;28;20048;-67
2021/01/15 05:19:55;;;;;;;26.15;12.25;;;-3.10;99.90;;;;;;5089732;28;20414;-66
2021/01/15 05:22:22;;;;;;;25.48;11.90;;;-3.10;99.90;;;;;;5090508;28;20055;-67
2021/01/15 05:24:49;;;;;;;21.73;10.90;;;-3.10;99.90;;;;;;5090382;28;20040;-67
2021/01/15 05:30:13;;;;;;;17.13;10.10;;;-3.10;99.90;;;;;;5090602;28;20059;-67
2021/01/15 05:32:40;;;;;;;20.95;11.60;;;-3.20;99.90;;;;;;5088660;28;20585;-67
2021/01/15 05:35:10;;;;;;;21.60;11.32;;;-3.30;99.90;;;;;;5090810;28;20044;-67
2021/01/15 05:37:37;;;;;;;19.38;11.25;;;-3.40;99.90;;;;;;5084078;28;20041;-67
2021/01/15 05:40:05;;;;;;;23.40;11.48;;;-3.50;99.90;;;;;;5089869;28;20063;-67
2021/01/15 05:42:49;;;;;;;23.55;13.23;;;-3.50;99.90;;;;;;5093844;28;20044;-67
2021/01/15 05:45:19;;;;;;;26.33;12.38;;;-3.70;99.90;;;;;;5095095;28;20074;-67
2021/01/15 05:47:47;;;;;;;24.02;12.18;;;-3.70;99.90;;;;;;5094834;28;20721;-67
2021/01/15 05:50:15;;;;;;;23.13;11.40;;;-3.80;99.90;;;;;;5093851;28;20483;-67
2021/01/15 05:52:57;;;;;;;18.17;10.98;;;-3.90;99.90;;;;;;5094478;28;20040;-67
2021/01/15 05:55:25;;;;;;;21.40;12.20;;;-4.00;99.90;;;;;;5090024;28;20055;-67
2021/01/15 05:57:52;;;;;;;20.40;11.63;;;-4.00;99.90;;;;;;5093860;28;20052;-68
2021/01/15 06:00:24;;;;;;;20.50;10.95;;;-4.10;99.90;;;;;;5065691;28;20048;-67
2021/01/15 06:02:55;;;;;;;19.23;10.40;;;-4.20;99.90;;;;;;5081728;28;20044;-66
2021/01/15 06:05:23;;;;;;;19.88;11.05;;;-4.20;99.90;;;;;;5086118;28;20085;-67
2021/01/15 06:07:56;;;;;;;20.92;11.40;;;-4.30;99.90;;;;;;5091022;28;20390;-66
2021/01/15 06:10:24;;;;;;;22.70;11.63;;;-4.30;99.90;;;;;;5071167;28;20468;-66
2021/01/15 06:12:51;;;;;;;22.40;12.55;;;-4.30;99.90;;;;;;5089511;28;20047;-66
2021/01/15 06:15:18;;;;;;;25.25;12.88;;;-4.30;99.90;;;;;;5093706;28;20046;-66
2021/01/15 06:17:51;;;;;;;27.35;13.25;;;-4.30;99.90;;;;;;5094206;28;20047;-66
2021/01/15 06:20:20;;;;;;;23.10;13.13;;;-4.30;99.90;;;;;;5090119;28;20085;-67
2021/01/15 06:22:54;;;;;;;23.70;12.77;;;-4.30;99.90;;;;;;5093333;28;20466;-67
2021/01/15 06:25:32;;;;;;;21.92;11.55;;;-4.30;99.90;;;;;;5077489;28;20052;-67
2021/01/15 06:28:09;;;;;;;21.90;11.90;;;-4.20;99.90;;;;;;5088205;28;20493;-66
2021/01/15 06:30:37;;;;;;;22.15;11.35;;;-4.20;99.90;;;;;;5090906;28;20040;-66
2021/01/15 06:33:10;;;;;;;20.52;11.70;;;-4.20;99.90;;;;;;5091703;28;20052;-66
2021/01/15 06:35:39;;;;;;;22.20;12.25;;;-4.10;99.90;;;;;;5087535;28;20048;-66
2021/01/15 06:38:11;;;;;;;21.85;11.98;;;-4.10;99.90;;;;;;5085587;28;20044;-67
2021/01/15 06:40:39;;;;;;;22.67;12.40;;;-4.10;99.90;;;;;;5092747;28;20394;-67
2021/01/15 06:43:10;;;;;;;25.27;12.65;;;-4.00;99.90;;;;;;5093342;28;20039;-67
2021/01/15 06:45:46;;;;;;;26.92;13.60;;;-4.00;99.90;;;;;;5075484;28;20052;-67
2021/01/15 06:48:14;;;;;;;22.58;12.43;;;-3.90;99.90;;;;;;5091419;28;20044;-67
2021/01/15 06:50:45;;;;;;;24.10;12.48;;;-3.90;99.90;;;;;;5089766;28;20382;-67
2021/01/15 06:53:18;;;;;;;26.20;12.93;;;-3.80;99.90;;;;;;5079315;28;20052;-67
2021/01/15 06:55:53;;;;;;;25.98;13.00;;;-3.70;99.90;;;;;;5080613;28;20047;-68
2021/01/15 06:58:27;;;;;;;24.85;13.32;;;-3.70;99.90;;;;;;5079418;28;20483;-67
2021/01/15 07:01:20;;;;;;;25.48;13.38;;;-3.70;99.90;;;;;;5073711;28;20083;-67
2021/01/15 07:04:23;;;;;;;22.45;12.60;;;-3.60;99.90;;;;;;5079588;28;20048;-67
2021/01/15 07:06:56;;;;;;;;;;;-3.50;99.90;;;;;;5089326;28;20502;-67
2021/01/15 07:09:27;;;;;;;26.85;12.77;;;-3.60;99.90;;;;;;5092734;28;20317;-67
2021/01/15 07:11:55;;;;;;;25.20;13.13;;;-3.50;99.90;;;;;;5088776;28;20043;-68
2021/01/15 07:14:41;;;;;;;24.85;13.05;;;-3.50;99.90;;;;;;5081072;28;20044;-68
2021/01/15 07:17:16;;;;;;;25.17;12.23;;;-3.50;99.90;;;;;;5075137;28;20080;-68
2021/01/15 07:19:44;;;;;;;24.58;12.88;;;-3.40;99.90;;;;;;5088268;28;20044;-67
2021/01/15 07:22:12;;;;;;;24.88;13.50;;;-3.40;99.90;;;;;;5092672;28;20131;-67
2021/01/15 07:24:42;;;;;;;24.48;12.82;;;-3.30;99.90;;;;;;5092619;28;20048;-67
2021/01/15 07:27:15;;;;;;;21.85;12.73;;;-3.20;99.90;;;;;;5091263;28;20490;-67
2021/01/15 07:29:48;;;;;;;25.30;13.88;;;-3.20;99.90;;;;;;5089794;28;20050;-68
2021/01/15 07:32:22;;;;;;;23.75;12.95;;;-3.10;99.90;;;;;;5088493;28;20127;-68
2021/01/15 07:34:59;;;;;;;23.30;12.85;;;-3.00;99.90;;;;;;5076678;28;20044;-68
2021/01/15 07:37:30;;;;;;;26.33;13.15;;;-2.90;99.90;;;;;;5079782;28;20055;-69
2021/01/15 07:40:05;;;;;;;24.67;13.65;;;-2.90;99.90;;;;;;5084501;28;20130;-69
2021/01/15 07:42:43;;;;;;;24.92;13.07;;;-2.70;99.90;;;;;;5077364;28;20054;-67
2021/01/15 07:45:25;;;;;;;29.00;13.45;;;-2.60;99.90;;;;;;5092078;28;20055;-67
2021/01/15 07:48:06;;;;;;;28.27;14.60;;;-2.50;99.90;;;;;;5091371;28;20058;-67
2021/01/15 07:50:36;;;;;;;22.20;12.55;;;-2.40;99.90;;;;;;5092182;28;20125;-67
2021/01/15 07:53:18;;;;;;;19.23;11.57;;;-2.30;99.90;;;;;;5081714;28;20127;-67
2021/01/15 07:55:47;;;;;;;21.42;11.52;;;-2.20;99.90;;;;;;5092144;28;20044;-67
2021/01/15 07:58:18;;;;;;;24.17;12.95;;;-2.10;99.90;;;;;;5091451;28;20067;-67
2021/01/15 08:00:46;;;;;;;26.17;13.43;;;-2.10;99.90;;;;;;5093181;28;20055;-66
2021/01/15 08:03:14;;;;;;;25.70;13.10;;;-2.00;99.90;;;;;;5086527;28;20286;-65
2021/01/15 08:05:43;;;;;;;27.33;13.68;;;-1.90;99.90;;;;;;5091352;28;20048;-66
2021/01/15 08:08:12;;;;;;;26.60;13.55;;;-1.80;99.90;;;;;;5091261;28;20131;-65
2021/01/15 08:10:50;;;;;;;22.33;12.52;;;-1.80;99.90;;;;;;5090856;28;20048;-65
2021/01/15 08:13:26;;;;;;;23.48;12.63;;;-1.70;99.90;;;;;;5090221;28;20393;-66
2021/01/15 08:15:55;;;;;;;19.23;11.18;;;-1.70;99.90;;;;;;5091566;28;20051;-68
2021/01/15 08:18:23;;;;;;;21.15;11.52;;;-1.70;99.90;;;;;;5105498;28;20046;-68
2021/01/15 08:20:54;;;;;;;25.35;13.63;;;-1.60;99.90;;;;;;5072096;28;20040;-68
2021/01/15 08:23:25;;;;;;;22.50;12.73;;;-1.50;99.90;;;;;;5090489;28;20055;-68
2021/01/15 08:26:00;;;;;;;22.55;12.70;;;-1.50;99.90;;;;;;5090746;28;20481;-68
2021/01/15 08:28:27;;;;;;;20.60;11.52;;;-1.40;99.90;;;;;;5091809;28;20062;-68
2021/01/15 08:31:01;;;;;;;22.48;12.82;;;-1.40;99.90;;;;;;5090774;28;20566;-68
2021/01/15 08:33:28;;;;;;;21.63;11.55;;;-1.30;99.90;;;;;;5090476;28;20067;-68
2021/01/15 08:35:57;;;;;;;19.52;11.45;;;-1.20;99.90;;;;;;5079775;28;20479;-68
2021/01/15 08:38:38;;;;;;;19.58;12.00;;;-1.00;99.90;;;;;;5091213;28;20067;-68
2021/01/15 08:41:13;;;;;;;;;;;-1.00;99.90;;;;;;5080715;28;20040;-67
2021/01/15 08:43:40;;;;;;;16.83;9.88;;;-0.80;99.90;;;;;;5072945;28;20354;-68
2021/01/15 08:46:14;;;;;;;20.73;9.75;;;-0.70;99.90;;;;;;5072836;28;20050;-68
2021/01/15 08:48:41;;;;;;;19.48;11.30;;;-0.60;99.90;;;;;;5089699;28;20040;-67
2021/01/15 08:51:11;;;;;;;18.67;11.55;;;-0.50;99.90;;;;;;5090964;28;20047;-68
2021/01/15 08:53:43;;;;;;;20.77;11.38;;;-0.40;99.90;;;;;;5090539;28;20044;-68
2021/01/15 08:56:19;;;;;;;21.13;12.23;;;-0.30;99.90;;;;;;5090532;28;20379;-68
2021/01/15 08:58:49;;;;;;;18.65;11.02;;;-0.20;99.90;;;;;;5072533;28;20047;-68
2021/01/15 09:01:30;;;;;;;19.77;12.10;;;-0.10;99.90;;;;;;5089815;28;20409;-68
2021/01/15 09:04:01;;;;;;;16.85;10.75;;;0.00;99.90;;;;;;5088418;28;20414;-68
2021/01/15 09:06:29;;;;;;;16.88;10.05;;;0.10;99.90;;;;;;5089672;28;20050;-68
2021/01/15 09:08:57;;;;;;;18.75;10.95;;;0.20;99.90;;;;;;5088967;28;20054;-69
2021/01/15 09:11:29;;;;;;;18.77;10.68;;;0.30;99.90;;;;;;5088277;28;20051;-68
2021/01/15 09:13:56;;;;;;;20.02;11.30;;;0.30;99.90;;;;;;5090582;28;20123;-68
2021/01/15 09:16:25;;;;;;;26.33;11.88;;;0.40;99.90;;;;;;5070062;28;20048;-68
2021/01/15 09:18:53;;;;;;;16.95;10.50;;;0.60;99.90;;;;;;5090372;28;20045;-68
2021/01/15 09:21:21;;;;;;;18.42;10.68;;;0.70;99.90;;;;;;5090133;28;20044;-69
2021/01/15 09:23:48;;;;;;;17.98;10.82;;;0.80;99.90;;;;;;5089051;28;20098;-68
2021/01/15 09:26:19;;;;;;;16.23;10.13;;;0.90;99.90;;;;;;5072900;28;20052;-68
2021/01/15 09:28:46;;;;;;;20.00;10.98;;;1.10;99.90;;;;;;5105934;28;20478;-68
2021/01/15 09:31:13;;;;;;;18.23;11.15;;;1.20;99.90;;;;;;5091487;28;20451;-69
2021/01/15 09:33:50;;;;;;;23.80;13.77;;;1.20;99.90;;;;;;5090196;28;20044;-68
2021/01/15 09:36:21;;;;;;;26.95;14.13;;;1.30;99.90;;;;;;5090795;28;20044;-69
2021/01/15 09:38:49;;;;;;;20.90;12.15;;;1.30;99.90;;;;;;5091123;28;20058;-69
2021/01/15 09:41:16;;;;;;;18.27;11.25;;;1.20;99.90;;;;;;5066107;28;20075;-70
2021/01/15 09:43:43;;;;;;;18.00;11.10;;;1.20;99.90;;;;;;5083321;28;20048;-69
2021/01/15 09:46:20;;;;;;;16.98;10.57;;;1.30;99.90;;;;;;5089450;28;20044;-69
2021/01/15 09:48:47;;;;;;;20.30;11.32;;;1.20;99.90;;;;;;5081550;28;20044;-69
2021/01/15 09:51:13;;;;;;;16.58;10.88;;;1.20;99.90;;;;;;5089714;28;20070;-69
2021/01/15 09:53:40;;;;;;;21.23;12.48;;;1.30;99.90;;;;;;5091217;28;20119;-68
2021/01/15 09:56:07;;;;;;;19.15;11.88;;;1.50;99.90;;;;;;5090622;28;20040;-69
2021/01/15 09:58:34;;;;;;;18.63;11.13;;;1.50;99.90;;;;;;5090643;28;20050;-69
2021/01/15 10:01:00;;;;;;;23.25;11.70;;;1.60;99.90;;;;;;5080996;28;20048;-70
2021/01/15 10:03:27;;;;;;;18.75;11.75;;;1.60;99.90;;;;;;5072119;28;20075;-70
2021/01/15 10:05:53;;;;;;;20.90;12.43;;;1.70;99.90;;;;;;5089521;28;20040;-69
2021/01/15 10:08:23;;;;;;;21.25;12.30;;;1.70;99.90;;;;;;5069012;28;20114;-69
2021/01/15 10:10:50;;;;;;;21.02;12.65;;;1.80;99.90;;;;;;5086381;28;20055;-70
2021/01/15 10:13:16;;;;;;;20.95;13.57;;;1.80;99.90;;;;;;5089867;28;20074;-70
2021/01/15 10:15:43;;;;;;;22.65;13.40;;;1.80;99.90;;;;;;5072453;28;20082;-70
2021/01/15 10:18:09;;;;;;;23.45;14.85;;;1.80;99.90;;;;;;5087920;28;20064;-69
2021/01/15 10:20:42;;;;;;;20.40;14.15;;;1.80;99.90;;;;;;5089605;28;20055;-70
2021/01/15 10:23:09;;;;;;;21.15;13.02;;;1.70;99.90;;;;;;5091690;28;20044;-69
2021/01/15 10:25:35;;;;;;;23.77;14.15;;;1.90;99.90;;;;;;5092150;28;20048;-69
2021/01/15 10:28:02;;;;;;;26.02;15.68;;;1.90;99.90;;;;;;5092354;28;20056;-70
2021/01/15 10:30:30;;;;;;;21.50;13.13;;;2.00;99.90;;;;;;5080746;28;20048;-69
2021/01/15 10:32:57;;;;;;;21.70;12.95;;;2.10;99.90;;;;;;5090828;28;20050;-69
2021/01/15 10:35:23;;;;;;;22.42;13.45;;;2.20;99.90;;;;;;5086650;28;20123;-70
2021/01/15 10:37:50;;;;;;;20.65;13.05;;;2.50;99.90;;;;;;5093360;28;20433;-70
2021/01/15 10:40:16;;;;;;;22.27;13.13;;;2.80;99.90;;;;;;5085755;28;20048;-70
2021/01/15 10:42:44;;;;;;;22.92;12.95;;;3.10;99.90;;;;;;5091119;28;20040;-70
2021/01/15 10:45:11;;;;;;;20.08;12.93;;;3.20;99.90;;;;;;5073723;28;20055;-69
2021/01/15 10:47:43;;;;;;;20.42;13.35;;;3.30;99.90;;;;;;5089459;28;20123;-70
2021/01/15 10:50:15;;;;;;;21.70;12.50;;;3.60;99.90;;;;;;5091442;28;20505;-71
2021/01/15 10:52:42;;;;;;;19.35;12.48;;;3.80;99.90;;;;;;5091381;28;20044;-70
2021/01/15 10:55:09;;;;;;;19.52;12.63;;;4.00;99.90;;;;;;5092856;28;20051;-70
2021/01/15 10:57:36;;;;;;;20.13;12.63;;;4.00;99.90;;;;;;5091900;28;20044;-70
2021/01/15 11:00:04;;;;;;;23.00;13.10;;;4.00;99.90;;;;;;5092846;28;20050;-70
2021/01/15 11:02:31;;;;;;;20.45;12.93;;;3.70;99.90;;;;;;5084015;28;20055;-69
2021/01/15 11:04:57;;;;;;;20.08;12.10;;;4.00;99.90;;;;;;5091981;28;20101;-70
2021/01/15 11:07:24;;;;;;;19.27;12.50;;;4.20;99.90;;;;;;5071296;28;20083;-69
2021/01/15 11:09:50;;;;;;;19.00;12.15;;;4.10;99.90;;;;;;5091881;28;20044;-70
2021/01/15 11:12:19;;;;;;;18.88;12.95;;;4.20;99.90;;;;;;5091389;28;20058;-70
2021/01/15 11:14:46;;;;;;;19.90;12.40;;;4.10;99.90;;;;;;5070784;28;20040;-69
2021/01/15 11:17:15;;;;;;;17.25;11.43;;;3.70;99.90;;;;;;5091062;28;20052;-69
2021/01/15 11:19:41;;;;;;;16.08;11.70;;;3.30;99.90;;;;;;5091044;28;20051;-70
2021/01/15 11:22:07;;;;;;;18.90;12.57;;;3.10;99.90;;;;;;5091954;28;20047;-69
2021/01/15 11:24:34;;;;;;;17.60;11.73;;;3.00;99.90;;;;;;5092373;28;20052;-70
2021/01/15 11:27:01;;;;;;;18.63;11.88;;;2.90;99.90;;;;;;5088431;28;20131;-70
2021/01/15 11:29:27;;;;;;;18.80;11.65;;;2.80;99.90;;;;;;5091554;28;20130;-68
2021/01/15 11:31:54;;;;;;;18.85;11.55;;;2.60;99.90;;;;;;5089938;28;20048;-68
2021/01/15 11:34:22;;;;;;;19.58;12.02;;;2.60;99.90;;;;;;5091889;28;20048;-68
2021/01/15 11:36:49;;;;;;;21.23;12.20;;;2.50;99.90;;;;;;5073475;28;20139;-68
2021/01/15 11:39:16;;;;;;;19.98;12.25;;;2.30;99.90;;;;;;5092204;28;20506;-68
2021/01/15 11:41:43;;;;;;;19.65;12.05;;;2.20;99.90;;;;;;5073916;28;20051;-68
2021/01/15 11:44:11;;;;;;;17.42;11.73;;;2.00;99.90;;;;;;5076004;28;20044;-68
2021/01/15 11:46:38;;;;;;;20.63;12.40;;;1.90;99.90;;;;;;5072641;28;20055;-68
2021/01/15 11:49:24;;;;;;;21.70;12.43;;;1.70;99.90;;;;;;5090746;28;20044;-68
2021/01/15 11:51:57;;;;;;;23.88;12.68;;;1.50;99.90;;;;;;5091201;28;20436;-68
2021/01/15 11:54:29;;;;;;;17.63;11.02;;;1.60;99.90;;;;;;5088952;28;20056;-68
2021/01/15 11:56:56;;;;;;;22.20;12.00;;;1.80;99.90;;;;;;5081723;28;20441;-68
2021/01/15 11:59:23;;;;;;;19.90;12.07;;;1.90;99.90;;;;;;5078071;28;20500;-68
2021/01/15 12:01:54;;;;;;;18.58;11.60;;;2.10;99.90;;;;;;5090608;28;20043;-69
2021/01/15 12:04:21;;;;;;;22.50;12.38;;;2.00;99.90;;;;;;5091085;28;20743;-69
2021/01/15 12:06:55;;;;;;;19.20;12.25;;;2.00;99.90;;;;;;5091339;28;20050;-69
2021/01/15 12:09:22;;;;;;;17.98;11.55;;;1.90;99.90;;;;;;5085039;28;20466;-69
2021/01/15 12:11:49;;;;;;;19.40;12.15;;;2.00;99.90;;;;;;5091246;28;20052;-68
2021/01/15 12:14:15;;;;;;;21.75;12.30;;;2.00;99.90;;;;;;5073559;28;20503;-67
2021/01/15 12:16:42;;;;;;;18.75;11.95;;;1.90;99.90;;;;;;5091387;28;20046;-69
2021/01/15 12:19:08;;;;;;;21.98;12.20;;;1.90;99.90;;;;;;5091655;28;20056;-69
2021/01/15 12:21:36;;;;;;;16.92;11.38;;;1.90;99.90;;;;;;5091445;28;20054;-69
2021/01/15 12:24:03;;;;;;;22.50;12.27;;;1.90;99.90;;;;;;5089999;28;20052;-69
2021/01/15 12:26:32;;;;;;;19.65;11.95;;;1.90;99.90;;;;;;5071480;28;20455;-68
2021/01/15 12:28:58;;;;;;;18.00;12.00;;;1.80;99.90;;;;;;5090837;28;20052;-70
2021/01/15 12:31:29;;;;;;;16.93;11.30;;;1.90;99.90;;;;;;5091027;28;20518;-69
2021/01/15 12:33:56;;;;;;;18.52;11.35;;;1.90;99.90;;;;;;5090776;28;20128;-70
2021/01/15 12:36:22;;;;;;;23.83;13.05;;;1.80;99.90;;;;;;5090350;28;20055;-69
2021/01/15 12:38:49;;;;;;;19.98;12.82;;;1.70;99.90;;;;;;5091145;28;20371;-71
2021/01/15 12:41:19;;;;;;;19.67;12.27;;;1.70;99.90;;;;;;5089989;28;20189;-70
2021/01/15 12:43:46;;;;;;;18.45;11.73;;;1.50;99.90;;;;;;5091187;28;20067;-70
2021/01/15 12:46:13;;;;;;;24.42;11.90;;;1.40;99.90;;;;;;5089178;28;21050;-69
2021/01/15 12:48:40;;;;;;;19.05;12.23;;;1.40;99.90;;;;;;5090674;28;20049;-69
2021/01/15 12:51:07;;;;;;;22.13;11.85;;;1.40;99.90;;;;;;5090168;28;20128;-69